Time;durP1;ratioP1;P1;durP2;ratioP2;P2;SDS_P1;SDS_P2;PMS_P1;PMS_P2;Temp;Humidity;BMP_temperature;BMP_pressure;BME280_temperature;BME280_humidity;BME280_pressure;Samples;Min_cycle;Max_cycle;Signal;HPM_P1;HPM_P2
2022/04/21 00:00:56;;;;;;;;;;;10.60;60.90;;;;;;5028906;28;19917;-79
2022/04/21 00:03:22;;;;;;;;;;;10.50;61.60;;;;;;5025640;28;19924;-80
2022/04/21 00:05:48;;;;;;;;;;;10.20;62.20;;;;;;5009843;28;19913;-79
2022/04/21 00:08:16;;;;;;;;;;;10.10;63.10;;;;;;5012731;28;20485;-78
2022/04/21 00:10:42;;;;;;;;;;;10.10;63.60;;;;;;5012828;28;20009;-78
2022/04/21 00:13:08;;;;;;;;;;;9.90;63.60;;;;;;5017728;28;20053;-78
2022/04/21 00:15:33;;;;;;;;;;;9.80;64.00;;;;;;5029323;28;19920;-79
2022/04/21 00:18:00;;;;;;;;;;;9.80;63.80;;;;;;5022547;28;20407;-79
2022/04/21 00:20:25;;;;;;;;;;;9.80;64.60;;;;;;5008420;28;20001;-79
2022/04/21 00:25:35;;;;;;;;;;;9.90;64.20;;;;;;5009772;28;19974;-79
2022/04/21 00:28:00;;;;;;;;;;;9.80;63.60;;;;;;5008730;28;20004;-79
2022/04/21 00:30:26;;;;;;;;;;;9.80;64.30;;;;;;5009376;28;19918;-78
2022/04/21 00:32:52;;;;;;;;;;;10.00;63.50;;;;;;5011572;28;19913;-79
2022/04/21 00:35:18;;;;;;;;;;;9.90;63.40;;;;;;5029209;28;19913;-78
2022/04/21 00:37:52;;;;;;;;;;;9.80;63.60;;;;;;5028686;28;19909;-79
2022/04/21 00:40:18;;;;;;;;;;;9.70;64.10;;;;;;5022408;28;19973;-78
2022/04/21 00:42:44;;;;;;;;;;;9.70;64.00;;;;;;5017795;28;19921;-77
2022/04/21 00:45:10;;;;;;;;;;;9.90;63.70;;;;;;5028959;28;19985;-79
2022/04/21 00:47:40;;;;;;;;;;;10.00;63.30;;;;;;5027432;28;20008;-78
2022/04/21 00:50:07;;;;;;;;;;;10.00;63.30;;;;;;5029083;28;19913;-79
2022/04/21 00:52:33;;;;;;;;;;;9.80;63.60;;;;;;5026539;28;20343;-79
2022/04/21 00:54:59;;;;;;;;;;;9.70;63.70;;;;;;5017471;28;19945;-79
2022/04/21 00:57:24;;;;;;;;;;;9.60;64.10;;;;;;5008742;28;19915;-78
2022/04/21 00:59:50;;;;;;;;;;;9.70;64.20;;;;;;5008961;28;19913;-78
2022/04/21 01:04:59;;;;;;;;;;;9.80;64.00;;;;;;5009761;28;20277;-79
2022/04/21 01:07:25;;;;;;;;;;;9.80;65.40;;;;;;5009370;28;20013;-79
2022/04/21 01:09:53;;;;;;;;;;;9.60;65.20;;;;;;5008521;28;19924;-78
2022/04/21 01:12:19;;;;;;;;;;;9.50;65.30;;;;;;5023147;28;19913;-77
2022/04/21 01:14:45;;;;;;;;;;;9.60;65.20;;;;;;5030866;28;20000;-77
2022/04/21 01:17:10;;;;;;;;;;;9.60;65.70;;;;;;5032896;28;19909;-79
2022/04/21 01:19:36;;;;;;;;;;;9.60;65.70;;;;;;5030724;28;19932;-78
2022/04/21 01:22:02;;;;;;;;;;;9.50;65.70;;;;;;5029910;28;19917;-79
2022/04/21 01:24:27;;;;;;;;;;;9.50;65.90;;;;;;5043881;22;19935;-86
2022/04/21 01:26:57;;;;;;;;;;;9.30;66.00;;;;;;5045436;28;19913;-86
2022/04/21 01:29:24;;;;;;;;;;;9.50;65.90;;;;;;5053133;28;19909;-86
2022/04/21 01:31:49;;;;;;;;;;;9.50;65.50;;;;;;5033549;28;19910;-86
2022/04/21 01:34:14;;;;;;;;;;;9.50;65.60;;;;;;5040631;28;20273;-86
2022/04/21 01:41:08;;;;;;;;;;;9.40;66.00;;;;;;5047759;28;19912;-85
2022/04/21 01:42:14;;;;;;;;;;;9.30;65.40;;;;;;5030208;28;19964;-86
2022/04/21 01:44:41;;;;;;;;;;;9.10;65.70;;;;;;5031518;28;19977;-85
2022/04/21 01:47:06;;;;;;;;;;;9.10;66.20;;;;;;5035092;28;20369;-86
2022/04/21 01:49:32;;;;;;;;;;;9.00;66.80;;;;;;5049117;28;19920;-86
2022/04/21 01:51:57;;;;;;;;;;;8.90;67.20;;;;;;5049667;28;19932;-86
2022/04/21 01:54:22;;;;;;;;;;;8.90;67.10;;;;;;5033124;28;19913;-86
2022/04/21 01:56:48;;;;;;;;;;;8.70;67.70;;;;;;5032964;28;19909;-86
2022/04/21 01:59:13;;;;;;;;;;;8.70;68.60;;;;;;5032127;28;19916;-86
2022/04/21 02:01:39;;;;;;;;;;;8.60;68.10;;;;;;5033001;28;20382;-86
2022/04/21 02:04:05;;;;;;;;;;;8.70;68.10;;;;;;5023939;28;20008;-86
2022/04/21 02:06:30;;;;;;;;;;;8.70;68.00;;;;;;5028426;28;20295;-86
2022/04/21 02:08:56;;;;;;;;;;;8.60;68.40;;;;;;5011694;28;20063;-85
2022/04/21 02:11:21;;;;;;;;;;;8.60;68.90;;;;;;5013200;28;19914;-86
2022/04/21 02:13:47;;;;;;;;;;;8.50;69.10;;;;;;5018503;28;19988;-87
2022/04/21 02:16:13;;;;;;;;;;;8.40;69.00;;;;;;5034458;28;20433;-86
2022/04/21 02:18:39;;;;;;;;;;;8.40;69.40;;;;;;5048634;28;19975;-86
2022/04/21 02:21:04;;;;;;;;;;;8.40;69.10;;;;;;5012693;28;19965;-86
2022/04/21 02:23:30;;;;;;;;;;;8.30;69.20;;;;;;5023963;28;19943;-86
2022/04/21 02:25:55;;;;;;;;;;;8.30;69.40;;;;;;5051674;28;19944;-85
2022/04/21 02:28:25;;;;;;;;;;;8.20;69.60;;;;;;5048711;28;19994;-86
2022/04/21 02:30:50;;;;;;;;;;;8.20;69.90;;;;;;5032252;28;20348;-86
2022/04/21 02:33:16;;;;;;;;;;;8.20;69.80;;;;;;5033241;28;19918;-86
2022/04/21 02:35:41;;;;;;;;;;;8.30;69.60;;;;;;5044052;28;19988;-86
2022/04/21 02:38:07;;;;;;;;;;;8.20;69.40;;;;;;5032630;28;19952;-86
2022/04/21 02:40:32;;;;;;;;;;;8.20;69.70;;;;;;5031761;28;20371;-86
2022/04/21 02:42:58;;;;;;;;;;;8.10;69.70;;;;;;5033331;28;19924;-85
2022/04/21 02:45:24;;;;;;;;;;;8.10;69.80;;;;;;5033130;28;19909;-86
2022/04/21 02:47:49;;;;;;;;;;;8.00;70.10;;;;;;5031856;28;19987;-86
2022/04/21 02:50:17;;;;;;;;;;;8.10;69.70;;;;;;5031670;28;20038;-86
2022/04/21 02:52:43;;;;;;;;;;;8.00;69.90;;;;;;5033054;28;19913;-86
2022/04/21 02:57:53;;;;;;;;;;;8.10;69.50;;;;;;5046903;28;19920;-84
2022/04/21 03:00:19;;;;;;;;;;;8.10;69.70;;;;;;5039077;28;19928;-86
2022/04/21 03:02:44;;;;;;;;;;;8.00;69.70;;;;;;5025881;28;20565;-86
2022/04/21 03:05:11;;;;;;;;;;;8.00;69.70;;;;;;5031763;28;22065;-86
2022/04/21 03:07:37;;;;;;;;;;;8.00;69.90;;;;;;5033819;28;19909;-86
2022/04/21 03:10:02;;;;;;;;;;;7.90;69.60;;;;;;5029537;28;19928;-85
2022/04/21 03:12:28;;;;;;;;;;;7.90;69.80;;;;;;5012205;28;19910;-86
2022/04/21 03:14:55;;;;;;;;;;;7.80;70.40;;;;;;5012079;28;20343;-86
2022/04/21 03:17:21;;;;;;;;;;;7.80;70.70;;;;;;5013732;28;19913;-85
2022/04/21 03:19:47;;;;;;;;;;;7.70;70.40;;;;;;5013064;28;20403;-86
2022/04/21 03:25:04;;;;;;;;;;;7.60;71.40;;;;;;5012805;28;19979;-86
2022/04/21 03:27:29;;;;;;;;;;;7.70;71.20;;;;;;5011379;28;19910;-85
2022/04/21 03:29:59;;;;;;;;;;;7.70;70.90;;;;;;5017973;28;19910;-86
2022/04/21 03:32:26;;;;;;;;;;;7.60;70.60;;;;;;5012491;28;19909;-86
2022/04/21 03:34:53;;;;;;;;;;;7.60;71.10;;;;;;5010227;28;19916;-86
2022/04/21 03:37:20;;;;;;;;;;;7.60;70.80;;;;;;5011427;28;19913;-86
2022/04/21 03:39:45;;;;;;;;;;;7.50;70.70;;;;;;5010529;28;19910;-86
2022/04/21 03:42:19;;;;;;;;;;;7.50;71.00;;;;;;5044290;28;19914;-85
2022/04/21 03:44:45;;;;;;;;;;;7.50;71.30;;;;;;5017306;28;19969;-85
2022/04/21 03:47:11;;;;;;;;;;;7.50;70.50;;;;;;5030898;28;19925;-85
2022/04/21 03:49:36;;;;;;;;;;;7.60;70.20;;;;;;5013370;28;20332;-86
2022/04/21 03:52:02;;;;;;;;;;;7.60;70.70;;;;;;5014344;28;19960;-86
2022/04/21 03:54:27;;;;;;;;;;;7.60;70.80;;;;;;5030195;28;19913;-86
2022/04/21 03:56:53;;;;;;;;;;;7.60;70.50;;;;;;5047524;28;20063;-86
2022/04/21 03:59:19;;;;;;;;;;;7.60;70.70;;;;;;5027094;28;20398;-85
2022/04/21 04:01:45;;;;;;;;;;;7.60;70.80;;;;;;5013201;28;19918;-85
2022/04/21 04:04:11;;;;;;;;;;;7.60;70.50;;;;;;5011112;28;19914;-85
2022/04/21 04:12:06;;;;;;;;;;;7.50;70.60;;;;;;5046220;28;19935;-86
2022/04/21 04:14:32;;;;;;;;;;;7.50;70.20;;;;;;5021052;28;19910;-86
2022/04/21 04:16:57;;;;;;;;;;;7.50;70.00;;;;;;5012100;28;19920;-85
2022/04/21 04:19:23;;;;;;;;;;;7.60;69.50;;;;;;5035143;28;19927;-85
2022/04/21 04:21:48;;;;;;;;;;;7.50;69.60;;;;;;5035054;28;19922;-86
2022/04/21 04:24:14;;;;;;;;;;;7.40;70.20;;;;;;5031173;28;19917;-85
2022/04/21 04:26:40;;;;;;;;;;;7.30;70.70;;;;;;5026123;28;19939;-85
2022/04/21 04:29:06;;;;;;;;;;;7.30;70.80;;;;;;5012388;28;20001;-86
2022/04/21 04:31:33;;;;;;;;;;;7.50;70.30;;;;;;5015164;28;19933;-86
2022/04/21 04:33:59;;;;;;;;;;;7.40;70.20;;;;;;5011684;28;20439;-87
2022/04/21 04:36:24;;;;;;;;;;;7.30;70.30;;;;;;5013443;28;19945;-87
2022/04/21 04:38:50;;;;;;;;;;;7.40;70.40;;;;;;5010605;28;19989;-86
2022/04/21 04:44:00;;;;;;;;;;;7.30;71.00;;;;;;5044266;28;19967;-85
2022/04/21 04:46:38;;;;;;;;;;;7.30;70.70;;;;;;5014871;28;20336;-85
2022/04/21 04:49:09;;;;;;;;;;;7.30;71.30;;;;;;5025149;28;19917;-86
2022/04/21 04:51:37;;;;;;;;;;;7.40;70.90;;;;;;5028191;28;19925;-86
2022/04/21 04:54:05;;;;;;;;;;;7.40;71.00;;;;;;5036199;28;19913;-85
2022/04/21 04:56:30;;;;;;;;;;;7.30;71.20;;;;;;5055119;28;19913;-87
2022/04/21 04:58:56;;;;;;;;;;;7.10;71.90;;;;;;5034297;28;20681;-88
2022/04/21 05:01:29;;;;;;;;;;;7.10;71.60;;;;;;5036230;28;19917;-85
2022/04/21 05:04:01;;;;;;;;;;;7.30;70.30;;;;;;5027894;28;20470;-85
2022/04/21 05:06:27;;;;;;;;;;;7.50;70.20;;;;;;5044469;28;19906;-86
2022/04/21 05:08:52;;;;;;;;;;;7.60;69.90;;;;;;5053614;28;20387;-85
2022/04/21 05:11:18;;;;;;;;;;;7.60;69.00;;;;;;5035162;28;19913;-85
2022/04/21 05:13:44;;;;;;;;;;;7.60;69.20;;;;;;5024693;28;19925;-87
2022/04/21 05:16:10;;;;;;;;;;;7.70;68.40;;;;;;5036275;28;19945;-85
2022/04/21 05:18:35;;;;;;;;;;;7.80;68.50;;;;;;5036199;28;19982;-85
2022/04/21 05:21:01;;;;;;;;;;;7.90;68.80;;;;;;5036319;28;19944;-85
2022/04/21 05:23:28;;;;;;;;;;;8.00;68.60;;;;;;5035576;28;20386;-85
2022/04/21 05:25:53;;;;;;;;;;;8.30;66.80;;;;;;5036872;28;20364;-84
2022/04/21 05:28:19;;;;;;;;;;;8.50;66.50;;;;;;5036322;28;19931;-85
2022/04/21 05:30:58;;;;;;;;;;;8.20;67.00;;;;;;5033633;28;19916;-86
2022/04/21 05:33:25;;;;;;;;;;;8.60;66.20;;;;;;5038337;28;19916;-88
2022/04/21 05:35:50;;;;;;;;;;;8.60;66.20;;;;;;5037023;28;19937;-85
2022/04/21 05:38:16;;;;;;;;;;;8.60;66.10;;;;;;5043935;28;19948;-87
2022/04/21 05:40:45;;;;;;;;;;;8.60;66.10;;;;;;5055041;28;19902;-87
2022/04/21 05:43:12;;;;;;;;;;;8.50;66.40;;;;;;5043585;28;19921;-86
2022/04/21 05:45:38;;;;;;;;;;;8.60;66.90;;;;;;5035558;28;19913;-85
2022/04/21 05:48:03;;;;;;;;;;;8.60;67.00;;;;;;5030739;28;19924;-88
2022/04/21 05:50:31;;;;;;;;;;;8.70;67.30;;;;;;5028954;28;19909;-86
2022/04/21 05:52:58;;;;;;;;;;;9.20;66.00;;;;;;5037066;28;19915;-86
2022/04/21 05:55:23;;;;;;;;;;;9.80;64.80;;;;;;5037297;28;19917;-87
2022/04/21 05:57:49;;;;;;;;;;;11.00;61.40;;;;;;5034500;28;19909;-86
2022/04/21 06:00:14;;;;;;;;;;;12.20;58.00;;;;;;5033501;28;19909;-86
2022/04/21 06:02:40;;;;;;;;;;;12.50;55.90;;;;;;5035144;28;19913;-86
2022/04/21 06:05:05;;;;;;;;;;;11.90;57.50;;;;;;5033782;28;19921;-86
2022/04/21 06:07:31;;;;;;;;;;;11.00;59.80;;;;;;5033541;28;19909;-86
2022/04/21 06:09:56;;;;;;;;;;;10.30;61.30;;;;;;5033069;28;19988;-86
2022/04/21 06:12:25;;;;;;;;;;;9.80;63.70;;;;;;5032634;28;19921;-85
2022/04/21 06:14:53;;;;;;;;;;;9.50;65.50;;;;;;5034248;28;19920;-85
2022/04/21 06:17:19;;;;;;;;;;;9.20;66.80;;;;;;5015972;28;19918;-86
2022/04/21 06:19:44;;;;;;;;;;;9.10;66.50;;;;;;5035956;28;19909;-86
2022/04/21 06:22:10;;;;;;;;;;;9.10;66.00;;;;;;5052803;28;19912;-85
2022/04/21 06:24:36;;;;;;;;;;;9.30;66.60;;;;;;5052313;28;20283;-87
2022/04/21 06:27:03;;;;;;;;;;;9.20;67.00;;;;;;5054386;28;20375;-86
2022/04/21 06:29:29;;;;;;;;;;;9.30;66.60;;;;;;5066713;28;19940;-85
2022/04/21 06:31:54;;;;;;;;;;;9.30;66.10;;;;;;5054788;28;19909;-87
2022/04/21 06:34:20;;;;;;;;;;;9.40;68.20;;;;;;5032425;28;19948;-86
2022/04/21 06:36:45;;;;;;;;;;;9.30;66.20;;;;;;5034545;28;20375;-85
2022/04/21 06:39:11;;;;;;;;;;;9.40;66.20;;;;;;5032370;28;20057;-86
2022/04/21 06:41:36;;;;;;;;;;;9.60;67.70;;;;;;5033344;28;19920;-86
2022/04/21 06:49:30;;;;;;;;;;;9.80;66.10;;;;;;5014639;28;20333;-86
2022/04/21 06:51:56;;;;;;;;;;;9.90;66.00;;;;;;5018389;28;19940;-85
2022/04/21 06:54:21;;;;;;;;;;;9.90;66.70;;;;;;5034230;28;19913;-86
2022/04/21 06:56:48;;;;;;;;;;;9.90;65.90;;;;;;5052889;28;20015;-86
2022/04/21 06:59:17;;;;;;;;;;;9.90;66.90;;;;;;5062507;28;19917;-86
2022/04/21 07:01:42;;;;;;;;;;;9.90;66.20;;;;;;5067569;28;19988;-86
2022/04/21 07:04:08;;;;;;;;;;;10.00;66.00;;;;;;5040896;28;19956;-86
2022/04/21 07:06:33;;;;;;;;;;;10.10;66.00;;;;;;5033731;28;19913;-86
2022/04/21 07:08:58;;;;;;;;;;;10.10;66.20;;;;;;5032102;28;19913;-85
2022/04/21 07:11:24;;;;;;;;;;;10.10;66.20;;;;;;5033850;28;20383;-86
2022/04/21 07:13:51;;;;;;;;;;;10.20;65.80;;;;;;5020854;28;19913;-86
2022/04/21 07:16:17;;;;;;;;;;;10.20;65.40;;;;;;5012865;28;19997;-86
2022/04/21 07:18:42;;;;;;;;;;;10.20;65.90;;;;;;5025402;28;19973;-86
2022/04/21 07:21:09;;;;;;;;;;;10.30;66.00;;;;;;5032441;28;19920;-85
2022/04/21 07:23:35;;;;;;;;;;;10.30;64.80;;;;;;5033550;28;20010;-86
2022/04/21 07:26:01;;;;;;;;;;;10.40;64.30;;;;;;5031248;28;19921;-86
2022/04/21 07:28:26;;;;;;;;;;;10.50;64.00;;;;;;5016608;28;19918;-86
2022/04/21 07:30:52;;;;;;;;;;;10.50;63.80;;;;;;5020090;28;19976;-87
2022/04/21 07:33:17;;;;;;;;;;;10.60;64.40;;;;;;5031438;28;20008;-86
2022/04/21 07:35:43;;;;;;;;;;;10.70;62.30;;;;;;5046994;28;19916;-87
2022/04/21 07:38:09;;;;;;;;;;;10.80;63.20;;;;;;5038005;28;19920;-87
2022/04/21 07:40:36;;;;;;;;;;;10.80;62.30;;;;;;5026241;28;19914;-87
2022/04/21 07:43:03;;;;;;;;;;;10.90;63.50;;;;;;5041577;28;19913;-86
2022/04/21 07:45:29;;;;;;;;;;;10.90;62.60;;;;;;5032192;28;19959;-86
2022/04/21 07:47:55;;;;;;;;;;;11.00;62.90;;;;;;5032381;28;19932;-86
2022/04/21 07:50:23;;;;;;;;;;;11.10;62.70;;;;;;5032102;28;19909;-86
2022/04/21 07:55:33;;;;;;;;;;;11.30;60.90;;;;;;5033282;28;20059;-87
2022/04/21 07:57:59;;;;;;;;;;;11.40;61.20;;;;;;5031511;28;19975;-86
2022/04/21 08:00:24;;;;;;;;;;;11.40;60.60;;;;;;5029713;28;19921;-87
2022/04/21 08:02:50;;;;;;;;;;;11.50;61.00;;;;;;5032816;28;19956;-86
2022/04/21 08:05:19;;;;;;;;;;;11.50;59.50;;;;;;5030930;28;20003;-87
2022/04/21 08:07:44;;;;;;;;;;;11.60;59.20;;;;;;5024641;28;20012;-86
2022/04/21 08:10:11;;;;;;;;;;;11.60;57.30;;;;;;5035853;28;19948;-84
2022/04/21 08:12:43;;;;;;;;;;;11.50;57.00;;;;;;5069038;28;19921;-84
2022/04/21 08:15:09;;;;;;;;;;;11.50;56.80;;;;;;5041397;28;20402;-83
2022/04/21 08:17:36;;;;;;;;;;;11.60;56.80;;;;;;5040053;28;19920;-84
2022/04/21 08:20:03;;;;;;;;;;;11.60;58.00;;;;;;5054924;28;19924;-82
2022/04/21 08:22:28;;;;;;;;;;;11.90;59.00;;;;;;5045632;28;19929;-86
2022/04/21 08:33:06;;;;;;;;;;;12.40;56.90;;;;;;5034160;28;19920;-84
2022/04/21 08:35:32;;;;;;;;;;;12.40;56.20;;;;;;5036613;28;20387;-85
2022/04/21 08:37:57;;;;;;;;;;;12.50;58.50;;;;;;5035507;28;20311;-83
2022/04/21 08:40:24;;;;;;;;;;;12.40;58.60;;;;;;5035447;28;19939;-84
2022/04/21 08:42:52;;;;;;;;;;;12.40;57.40;;;;;;5029690;28;19917;-83
2022/04/21 08:45:18;;;;;;;;;;;12.40;54.80;;;;;;5016572;28;19924;-84
2022/04/21 08:47:46;;;;;;;;;;;12.40;53.90;;;;;;5017198;28;19914;-83
2022/04/21 08:50:13;;;;;;;;;;;12.60;55.00;;;;;;5036891;28;19909;-83
2022/04/21 08:52:40;;;;;;;;;;;12.50;53.50;;;;;;5026395;28;20359;-82
2022/04/21 08:55:07;;;;;;;;;;;12.50;53.40;;;;;;5026843;28;20122;-84
2022/04/21 08:57:35;;;;;;;;;;;12.60;53.40;;;;;;5049976;28;19913;-84
2022/04/21 09:00:01;;;;;;;;;;;12.70;53.30;;;;;;5050506;28;19909;-84
2022/04/21 09:02:40;;;;;;;;;;;12.80;53.10;;;;;;5036410;28;19944;-84
2022/04/21 09:05:06;;;;;;;;;;;12.90;53.00;;;;;;5027921;28;20526;-84
2022/04/21 09:07:41;;;;;;;;;;;13.00;53.00;;;;;;5029663;28;19917;-84
2022/04/21 09:10:11;;;;;;;;;;;13.10;53.50;;;;;;5033033;28;19928;-85
2022/04/21 09:12:39;;;;;;;;;;;13.00;53.80;;;;;;5038563;28;19928;-85
2022/04/21 09:15:06;;;;;;;;;;;13.10;53.20;;;;;;5048067;28;19909;-86
2022/04/21 09:17:37;;;;;;;;;;;13.20;54.00;;;;;;5037103;28;19956;-86
2022/04/21 09:20:04;;;;;;;;;;;13.20;53.80;;;;;;5041150;28;20303;-85
2022/04/21 09:22:34;;;;;;;;;;;13.20;54.80;;;;;;5020328;28;19940;-86
2022/04/21 09:24:59;;;;;;;;;;;13.30;55.10;;;;;;5033822;28;19921;-85
2022/04/21 09:27:41;;;;;;;;;;;13.40;55.90;;;;;;5051412;28;20246;-84
2022/04/21 09:30:10;;;;;;;;;;;13.50;54.00;;;;;;5047310;28;20396;-84
2022/04/21 09:32:50;;;;;;;;;;;13.60;52.20;;;;;;5017674;28;19923;-83
2022/04/21 09:35:16;;;;;;;;;;;13.40;53.70;;;;;;5024602;28;20031;-84
2022/04/21 09:37:45;;;;;;;;;;;13.40;53.30;;;;;;5025032;28;19917;-84
2022/04/21 09:40:11;;;;;;;;;;;13.60;52.20;;;;;;5037640;28;19909;-85
2022/04/21 09:42:36;;;;;;;;;;;13.80;52.90;;;;;;5057408;28;19925;-84
2022/04/21 09:47:50;;;;;;;;;;;13.80;51.70;;;;;;5028670;28;19923;-84
2022/04/21 09:50:15;;;;;;;;;;;13.70;52.70;;;;;;5032808;28;19913;-85
2022/04/21 09:52:47;;;;;;;;;;;13.90;52.70;;;;;;5034136;28;19959;-85
2022/04/21 09:55:20;;;;;;;;;;;13.50;52.30;;;;;;5052321;28;20019;-85
2022/04/21 09:57:45;;;;;;;;;;;13.50;53.60;;;;;;5036667;28;20332;-83
2022/04/21 10:00:11;;;;;;;;;;;13.60;52.10;;;;;;5038250;28;19909;-85
2022/04/21 10:02:37;;;;;;;;;;;13.80;53.50;;;;;;5033095;28;19917;-85
2022/04/21 10:05:03;;;;;;;;;;;14.00;51.70;;;;;;5038264;28;20617;-84
2022/04/21 10:07:29;;;;;;;;;;;14.00;51.10;;;;;;5037724;28;19913;-84
2022/04/21 10:09:54;;;;;;;;;;;14.10;51.30;;;;;;5034242;28;19979;-84
2022/04/21 10:12:20;;;;;;;;;;;14.20;50.10;;;;;;5034964;28;19917;-84
2022/04/21 10:14:47;;;;;;;;;;;14.30;51.30;;;;;;5034557;28;19913;-82
2022/04/21 10:17:13;;;;;;;;;;;14.10;48.30;;;;;;5033662;28;19913;-83
2022/04/21 10:19:38;;;;;;;;;;;14.10;49.20;;;;;;5027488;28;19917;-83
2022/04/21 10:22:06;;;;;;;;;;;14.10;49.20;;;;;;5029731;28;19917;-85
2022/04/21 10:24:34;;;;;;;;;;;14.20;48.70;;;;;;5034827;28;19918;-83
2022/04/21 10:27:00;;;;;;;;;;;14.00;50.50;;;;;;5032249;28;20333;-84
2022/04/21 10:29:29;;;;;;;;;;;13.80;52.20;;;;;;5034570;28;19917;-83
2022/04/21 10:31:59;;;;;;;;;;;14.10;49.30;;;;;;5031943;28;19921;-81
2022/04/21 10:34:28;;;;;;;;;;;14.00;49.70;;;;;;5034114;28;19952;-85
2022/04/21 10:37:10;;;;;;;;;;;14.00;48.80;;;;;;5034967;28;19924;-86
2022/04/21 10:39:36;;;;;;;;;;;14.00;48.80;;;;;;5024377;28;19921;-85
2022/04/21 10:42:05;;;;;;;;;;;14.10;49.00;;;;;;5024189;28;20391;-84
2022/04/21 10:44:39;;;;;;;;;;;14.20;48.30;;;;;;5031917;28;19948;-85
2022/04/21 10:47:24;;;;;;;;;;;14.20;49.10;;;;;;5032188;28;19916;-85
2022/04/21 10:49:56;;;;;;;;;;;14.50;48.60;;;;;;5043550;28;19962;-85
2022/04/21 10:57:48;;;;;;;;;;;14.60;49.80;;;;;;5034860;28;20302;-84
2022/04/21 11:00:30;;;;;;;;;;;14.80;48.70;;;;;;5032327;28;19910;-85
2022/04/21 11:03:02;;;;;;;;;;;14.90;48.80;;;;;;5072429;28;19916;-83
2022/04/21 11:05:33;;;;;;;;;;;14.90;48.80;;;;;;5039864;28;19940;-84
2022/04/21 11:07:59;;;;;;;;;;;15.00;50.50;;;;;;5038134;28;19921;-83
2022/04/21 11:10:25;;;;;;;;;;;14.80;50.60;;;;;;5059668;28;20000;-83
2022/04/21 11:12:51;;;;;;;;;;;14.90;51.70;;;;;;5062602;28;19909;-84
2022/04/21 11:15:31;;;;;;;;;;;14.70;51.90;;;;;;5040942;28;20050;-83
2022/04/21 11:18:02;;;;;;;;;;;14.50;50.40;;;;;;5036512;28;19909;-84
2022/04/21 11:20:28;;;;;;;;;;;14.50;51.10;;;;;;5038374;28;19913;-83
2022/04/21 11:22:53;;;;;;;;;;;14.70;52.10;;;;;;5035882;28;20323;-85
2022/04/21 11:25:19;;;;;;;;;;;14.70;51.20;;;;;;5035921;28;19936;-82
2022/04/21 11:27:45;;;;;;;;;;;14.80;51.40;;;;;;5033804;28;20260;-84
2022/04/21 11:30:11;;;;;;;;;;;14.60;54.20;;;;;;5034183;28;19963;-84
2022/04/21 11:32:37;;;;;;;;;;;14.50;52.00;;;;;;5034510;28;19967;-83
2022/04/21 11:35:10;;;;;;;;;;;14.40;53.10;;;;;;5033725;28;20375;-84
2022/04/21 11:37:44;;;;;;;;;;;14.40;53.90;;;;;;5032247;28;19916;-85
2022/04/21 11:40:25;;;;;;;;;;;14.20;54.60;;;;;;5019949;28;19913;-84
2022/04/21 11:42:51;;;;;;;;;;;14.20;53.60;;;;;;5038692;28;19913;-84
2022/04/21 11:45:21;;;;;;;;;;;14.10;54.70;;;;;;5033361;28;19971;-85
2022/04/21 11:47:46;;;;;;;;;;;14.00;52.80;;;;;;5039957;28;19916;-85
2022/04/21 11:50:17;;;;;;;;;;;13.90;56.20;;;;;;5037809;28;19909;-83
2022/04/21 11:52:43;;;;;;;;;;;14.00;55.10;;;;;;5031861;28;19932;-84
2022/04/21 11:55:12;;;;;;;;;;;14.20;55.50;;;;;;5028813;28;19913;-84
2022/04/21 11:57:41;;;;;;;;;;;14.30;53.80;;;;;;5041052;28;19925;-84
2022/04/21 12:00:07;;;;;;;;;;;14.40;54.40;;;;;;5029556;28;19979;-84
2022/04/21 12:08:01;;;;;;;;;;;14.80;55.50;;;;;;5031931;28;19920;-84
2022/04/21 12:10:26;;;;;;;;;;;14.70;54.90;;;;;;5028012;28;19917;-84
2022/04/21 12:12:52;;;;;;;;;;;14.80;54.90;;;;;;5029606;28;19992;-85
2022/04/21 12:15:28;;;;;;;;;;;15.10;55.70;;;;;;5031495;28;20434;-85
2022/04/21 12:17:57;;;;;;;;;;;15.20;53.70;;;;;;5029721;28;19963;-84
2022/04/21 12:20:23;;;;;;;;;;;15.10;52.70;;;;;;5029323;28;19909;-84
2022/04/21 12:22:49;;;;;;;;;;;14.90;52.90;;;;;;5029515;28;19920;-86
2022/04/21 12:25:14;;;;;;;;;;;14.80;52.70;;;;;;5008747;28;20005;-86
2022/04/21 12:27:40;;;;;;;;;;;14.90;53.80;;;;;;5027241;28;19956;-85
2022/04/21 12:30:07;;;;;;;;;;;14.90;55.20;;;;;;5046085;28;19909;-85
2022/04/21 12:32:33;;;;;;;;;;;15.10;55.00;;;;;;5046237;28;19909;-84
2022/04/21 12:35:00;;;;;;;;;;;15.20;54.50;;;;;;5045650;28;19913;-85
2022/04/21 12:37:29;;;;;;;;;;;15.20;53.60;;;;;;5046113;28;20414;-85
2022/04/21 12:39:56;;;;;;;;;;;15.20;53.00;;;;;;5045056;28;19913;-85
2022/04/21 12:42:21;;;;;;;;;;;15.20;51.90;;;;;;5045724;28;19937;-83
2022/04/21 12:44:47;;;;;;;;;;;15.50;51.80;;;;;;5015684;28;20390;-84
2022/04/21 12:47:17;;;;;;;;;;;15.30;52.70;;;;;;5018993;28;19920;-85
2022/04/21 12:49:52;;;;;;;;;;;15.10;51.70;;;;;;5024559;28;19909;-85
2022/04/21 12:52:29;;;;;;;;;;;15.30;52.10;;;;;;5034339;28;20329;-84
2022/04/21 12:54:55;;;;;;;;;;;15.40;51.40;;;;;;5031734;28;19909;-84
2022/04/21 12:57:20;;;;;;;;;;;15.30;52.30;;;;;;5031380;28;20280;-84
2022/04/21 12:59:46;;;;;;;;;;;15.20;53.00;;;;;;5030089;28;20510;-84
2022/04/21 13:02:12;;;;;;;;;;;15.20;54.60;;;;;;5014874;28;19917;-86
2022/04/21 13:04:38;;;;;;;;;;;15.10;53.80;;;;;;5010222;28;19924;-84
2022/04/21 13:07:04;;;;;;;;;;;15.00;54.70;;;;;;5013029;28;20004;-84
2022/04/21 13:09:29;;;;;;;;;;;15.10;54.40;;;;;;5017800;28;19914;-85
2022/04/21 13:11:54;;;;;;;;;;;14.90;54.80;;;;;;5033899;28;19927;-83
2022/04/21 13:14:20;;;;;;;;;;;14.80;57.10;;;;;;5035536;28;19910;-85
2022/04/21 13:16:45;;;;;;;;;;;14.90;57.60;;;;;;5015760;28;19913;-85
2022/04/21 13:19:11;;;;;;;;;;;14.80;56.20;;;;;;5013079;28;19913;-83
2022/04/21 13:24:20;;;;;;;;;;;14.90;54.90;;;;;;5036545;28;19936;-84
2022/04/21 13:26:46;;;;;;;;;;;14.90;54.20;;;;;;5036384;28;19908;-84
2022/04/21 13:29:11;;;;;;;;;;;15.00;54.10;;;;;;5033092;28;19913;-83
2022/04/21 13:34:21;;;;;;;;;;;15.00;54.70;;;;;;5035269;28;19920;-84
2022/04/21 13:36:47;;;;;;;;;;;15.00;54.90;;;;;;5034191;28;19913;-85
2022/04/21 13:39:12;;;;;;;;;;;15.10;55.40;;;;;;5035491;28;19923;-84
2022/04/21 13:41:38;;;;;;;;;;;15.10;54.10;;;;;;5036140;28;19991;-83
2022/04/21 13:44:03;;;;;;;;;;;15.20;53.70;;;;;;5035970;28;19911;-83
2022/04/21 13:46:29;;;;;;;;;;;15.20;54.20;;;;;;5037057;28;19991;-84
2022/04/21 13:48:56;;;;;;;;;;;15.30;54.80;;;;;;5033445;28;19963;-86
2022/04/21 13:51:22;;;;;;;;;;;15.30;54.70;;;;;;5021553;28;19940;-83
2022/04/21 13:53:47;;;;;;;;;;;15.30;55.80;;;;;;5016237;28;19932;-85
2022/04/21 13:56:13;;;;;;;;;;;15.50;56.60;;;;;;5013279;28;19916;-84
2022/04/21 13:58:38;;;;;;;;;;;15.40;55.30;;;;;;5020579;28;19920;-86
2022/04/21 14:01:03;;;;;;;;;;;15.40;56.00;;;;;;5032279;28;19967;-86
2022/04/21 14:03:32;;;;;;;;;;;15.20;56.30;;;;;;5033487;28;19913;-86
2022/04/21 14:05:58;;;;;;;;;;;15.30;54.60;;;;;;5035423;28;19975;-84
2022/04/21 14:08:24;;;;;;;;;;;15.30;55.00;;;;;;5033364;28;19933;-84
2022/04/21 14:10:49;;;;;;;;;;;15.40;55.50;;;;;;5009024;28;20285;-82
2022/04/21 14:13:15;;;;;;;;;;;15.40;54.50;;;;;;4976252;28;20426;-83
2022/04/21 14:15:40;;;;;;;;;;;15.30;54.30;;;;;;4983515;28;20345;-81
2022/04/21 14:18:06;;;;;;;;;;;15.10;56.20;;;;;;4987174;28;19941;-82
2022/04/21 14:20:32;;;;;;;;;;;15.10;57.80;;;;;;5024521;28;20171;-82
2022/04/21 14:22:57;;;;;;;;;;;15.10;57.40;;;;;;4996466;28;20226;-84
2022/04/21 14:25:23;;;;;;;;;;;15.20;57.10;;;;;;4964808;28;19916;-83
2022/04/21 14:27:51;;;;;;;;;;;15.10;55.60;;;;;;4957472;28;20209;-81
2022/04/21 14:30:17;;;;;;;;;;;14.90;56.90;;;;;;4965871;28;20194;-81
2022/04/21 14:32:47;;;;;;;;;;;14.90;56.40;;;;;;4971561;28;20210;-82
2022/04/21 14:35:12;;;;;;;;;;;15.10;56.80;;;;;;4982055;28;19917;-83
2022/04/21 14:45:51;;;;;;;;;;;15.30;54.50;;;;;;4978244;28;19967;-83
2022/04/21 14:48:16;;;;;;;;;;;15.50;53.40;;;;;;4961344;28;20039;-83
2022/04/21 14:50:42;;;;;;;;;;;15.50;53.60;;;;;;4987525;28;19972;-82
2022/04/21 14:53:08;;;;;;;;;;;15.50;53.80;;;;;;4971869;28;20349;-82
2022/04/21 14:55:33;;;;;;;;;;;15.40;53.20;;;;;;4968239;28;20210;-82
2022/04/21 14:57:59;;;;;;;;;;;15.40;56.10;;;;;;4979721;28;20368;-82
2022/04/21 15:00:27;;;;;;;;;;;15.50;53.40;;;;;;4980862;28;20697;-82
2022/04/21 15:02:54;;;;;;;;;;;15.60;54.40;;;;;;4986919;28;19968;-86
2022/04/21 15:05:20;;;;;;;;;;;15.60;52.20;;;;;;4969729;28;20198;-84
2022/04/21 15:07:46;;;;;;;;;;;15.40;53.70;;;;;;4988924;28;20862;-81
2022/04/21 15:10:12;;;;;;;;;;;15.50;54.10;;;;;;4998500;28;19913;-80
2022/04/21 15:12:37;;;;;;;;;;;15.60;55.10;;;;;;4986644;28;19972;-81
2022/04/21 15:15:03;;;;;;;;;;;15.60;53.20;;;;;;4979100;28;20270;-84
2022/04/21 15:17:28;;;;;;;;;;;15.60;54.00;;;;;;4989835;28;20087;-84
2022/04/21 15:19:56;;;;;;;;;;;15.60;53.10;;;;;;4997355;28;20434;-87
2022/04/21 15:22:22;;;;;;;;;;;15.50;52.80;;;;;;4995209;28;19957;-82
2022/04/21 15:24:52;;;;;;;;;;;15.40;53.00;;;;;;4983670;28;19917;-83
2022/04/21 15:27:24;;;;;;;;;;;15.50;52.50;;;;;;4987611;28;20083;-83